Time;durP1;ratioP1;P1;durP2;ratioP2;P2;SDS_P1;SDS_P2;PMS_P1;PMS_P2;Temp;Humidity;BMP_temperature;BMP_pressure;BME280_temperature;BME280_humidity;BME280_pressure;Samples;Min_cycle;Max_cycle;Signal;HPM_P1;HPM_P2
2021/05/24 00:01:02;;;;;;;4.85;1.70;;;15.90;99.90;;;;;;5050896;28;20383;-87
2021/05/24 00:03:29;;;;;;;3.05;1.90;;;16.00;99.90;;;;;;5033161;28;20452;-89
2021/05/24 00:05:56;;;;;;;4.20;1.63;;;16.20;99.90;;;;;;5036942;28;20385;-90
2021/05/24 00:08:23;;;;;;;4.45;1.70;;;16.40;99.90;;;;;;5042120;28;20494;-88
2021/05/24 00:10:50;;;;;;;4.28;1.95;;;16.60;99.90;;;;;;5042038;28;20873;-87
2021/05/24 00:13:19;;;;;;;2.55;1.55;;;16.70;99.90;;;;;;5046068;28;20525;-88
2021/05/24 00:15:49;;;;;;;4.22;1.80;;;16.80;99.90;;;;;;5051007;28;20395;-88
2021/05/24 00:18:17;;;;;;;3.50;2.15;;;16.90;99.90;;;;;;5051724;28;20383;-88
2021/05/24 00:21:01;;;;;;;5.88;2.00;;;16.90;99.90;;;;;;5048796;28;20533;-89
2021/05/24 00:23:28;;;;;;;3.15;2.00;;;17.00;99.90;;;;;;5046681;28;20401;-88
2021/05/24 00:25:56;;;;;;;4.63;2.15;;;16.90;99.90;;;;;;5048542;28;20458;-88
2021/05/24 00:28:23;;;;;;;4.63;1.45;;;16.80;99.90;;;;;;5050799;28;20402;-88
2021/05/24 00:30:51;;;;;;;3.95;1.63;;;16.80;99.90;;;;;;5047143;28;20444;-88
2021/05/24 00:33:18;;;;;;;2.88;1.35;;;17.00;99.90;;;;;;5031148;28;20448;-88
2021/05/24 00:35:46;;;;;;;3.77;1.47;;;17.10;99.90;;;;;;5031779;28;20376;-89
2021/05/24 00:38:13;;;;;;;2.53;1.25;;;17.10;99.90;;;;;;5032798;28;20417;-88
2021/05/24 00:40:40;;;;;;;2.40;1.17;;;17.20;99.90;;;;;;5032023;28;20807;-88
2021/05/24 00:43:09;;;;;;;3.67;1.40;;;17.10;99.90;;;;;;5036309;28;20529;-89
2021/05/24 00:45:36;;;;;;;3.50;1.65;;;17.00;99.90;;;;;;5043954;28;20465;-88
2021/05/24 00:48:04;;;;;;;2.70;1.20;;;17.00;99.90;;;;;;5032713;28;20885;-88
2021/05/24 00:50:32;;;;;;;3.90;1.35;;;17.00;99.90;;;;;;5035119;28;20419;-88
2021/05/24 00:52:59;;;;;;;4.38;1.20;;;17.10;99.90;;;;;;5031241;28;20382;-88
2021/05/24 00:55:26;;;;;;;5.07;1.13;;;17.20;99.90;;;;;;5031205;28;20420;-87
2021/05/24 00:57:53;;;;;;;2.70;1.00;;;17.30;99.90;;;;;;5034857;28;20387;-88
2021/05/24 01:00:43;;;;;;;4.30;0.98;;;17.40;99.90;;;;;;5048468;28;20459;-87
2021/05/24 01:03:12;;;;;;;3.03;1.00;;;17.50;99.90;;;;;;5050292;28;20486;-87
2021/05/24 01:05:41;;;;;;;4.93;1.13;;;17.40;99.90;;;;;;5050873;28;20383;-86
2021/05/24 01:08:09;;;;;;;1.27;0.50;;;17.30;99.90;;;;;;5050150;28;20422;-88
2021/05/24 01:10:37;;;;;;;3.00;1.08;;;17.30;99.90;;;;;;5031361;28;20385;-87
2021/05/24 01:13:07;;;;;;;2.35;0.93;;;17.30;99.90;;;;;;5030251;28;20384;-88
2021/05/24 01:15:36;;;;;;;43.55;8.68;;;17.40;99.90;;;;;;5033546;28;20380;-87
2021/05/24 01:18:04;;;;;;;32.97;9.25;;;17.50;99.90;;;;;;5029887;28;20373;-87
2021/05/24 01:20:31;;;;;;;7.43;2.03;;;17.50;99.90;;;;;;5032198;28;20389;-87
2021/05/24 01:25:36;;;;;;;112.43;23.85;;;17.80;99.90;;;;;;5029804;28;20893;-88
2021/05/24 01:28:05;;;;;;;14.98;4.63;;;17.90;99.90;;;;;;5030352;28;20431;-87
2021/05/24 01:30:33;;;;;;;4.30;0.70;;;17.80;99.90;;;;;;5031605;28;20381;-88
2021/05/24 01:33:00;;;;;;;3.88;0.80;;;17.60;99.90;;;;;;5029243;28;20440;-87
2021/05/24 01:35:27;;;;;;;2.45;0.80;;;17.40;99.90;;;;;;5029664;28;20534;-87
2021/05/24 01:37:54;;;;;;;14.68;2.83;;;17.30;99.90;;;;;;5029554;28;20794;-87
2021/05/24 01:40:23;;;;;;;4.82;0.93;;;17.30;99.90;;;;;;5030375;28;20462;-87
2021/05/24 01:42:58;;;;;;;3.50;0.73;;;17.20;99.90;;;;;;5029439;28;20462;-87
2021/05/24 01:45:26;;;;;;;4.20;0.83;;;17.30;99.90;;;;;;5030364;28;20369;-87
2021/05/24 01:47:54;;;;;;;4.40;0.70;;;17.40;99.90;;;;;;5032997;28;20400;-85
2021/05/24 01:50:22;;;;;;;2.17;0.60;;;17.40;99.90;;;;;;5032627;28;20857;-86
2021/05/24 01:52:50;;;;;;;2.95;0.88;;;17.40;99.90;;;;;;5015991;28;20474;-86
2021/05/24 01:55:17;;;;;;;3.87;0.83;;;17.50;99.90;;;;;;5032714;28;20442;-86
2021/05/24 01:57:44;;;;;;;2.30;0.80;;;17.70;99.90;;;;;;5032513;28;20377;-86
2021/05/24 02:00:21;;;;;;;4.80;0.70;;;17.80;99.90;;;;;;5032961;28;20444;-85
2021/05/24 02:02:49;;;;;;;3.83;0.70;;;17.80;99.90;;;;;;5014835;28;20769;-86
2021/05/24 02:05:18;;;;;;;3.83;0.63;;;17.80;99.90;;;;;;5046414;28;20478;-86
2021/05/24 02:07:47;;;;;;;3.80;0.77;;;17.80;99.90;;;;;;5040840;28;20436;-85
2021/05/24 02:10:18;;;;;;;5.47;1.85;;;17.70;99.90;;;;;;5052750;28;20371;-86
2021/05/24 02:12:46;;;;;;;3.83;1.42;;;17.80;99.90;;;;;;5024620;28;20384;-84
2021/05/24 02:15:16;;;;;;;4.50;1.30;;;17.80;99.90;;;;;;5045891;28;20755;-84
2021/05/24 02:17:43;;;;;;;2.20;1.23;;;17.70;99.90;;;;;;5051245;28;20823;-88
2021/05/24 02:20:23;;;;;;;4.80;1.30;;;17.40;99.90;;;;;;5054309;28;20916;-86
2021/05/24 02:22:51;;;;;;;6.27;1.50;;;17.00;99.90;;;;;;5050738;28;20495;-87
2021/05/24 02:25:19;;;;;;;4.70;1.40;;;16.70;99.90;;;;;;5041861;28;20385;-86
2021/05/24 02:27:46;;;;;;;2.15;1.23;;;16.50;99.90;;;;;;5037874;28;20385;-84
2021/05/24 02:30:15;;;;;;;2.30;0.90;;;16.40;99.90;;;;;;5044918;28;20501;-85
2021/05/24 02:32:42;;;;;;;3.85;1.30;;;16.30;99.90;;;;;;5047049;28;20390;-86
2021/05/24 02:35:12;;;;;;;4.28;1.02;;;16.20;99.90;;;;;;5042855;28;20384;-84
2021/05/24 02:37:43;;;;;;;3.42;0.75;;;16.10;99.90;;;;;;5042791;28;20438;-83
2021/05/24 02:40:12;;;;;;;2.15;0.65;;;16.10;99.90;;;;;;5040143;28;20430;-84
2021/05/24 02:42:39;;;;;;;2.13;0.98;;;16.00;99.90;;;;;;5050192;28;20483;-85
2021/05/24 02:45:08;;;;;;;1.73;0.90;;;16.00;99.90;;;;;;5051617;28;20449;-85
2021/05/24 02:47:36;;;;;;;1.65;0.77;;;16.10;99.90;;;;;;5032822;28;20751;-83
2021/05/24 02:50:07;;;;;;;2.88;0.77;;;16.00;99.90;;;;;;5049410;28;20395;-85
2021/05/24 02:52:35;;;;;;;4.57;0.77;;;16.10;99.90;;;;;;5049846;28;20441;-85
2021/05/24 02:55:03;;;;;;;1.55;0.65;;;16.10;99.90;;;;;;5049864;28;20395;-86
2021/05/24 02:57:30;;;;;;;2.08;0.90;;;16.10;99.90;;;;;;5049258;28;20419;-84
2021/05/24 02:59:57;;;;;;;2.55;0.80;;;16.10;99.90;;;;;;5050938;28;20398;-85
2021/05/24 03:02:29;;;;;;;2.50;0.77;;;16.10;99.90;;;;;;5049408;28;20403;-84
2021/05/24 03:04:56;;;;;;;2.40;0.85;;;16.00;99.90;;;;;;5046514;28;20406;-85
2021/05/24 03:07:23;;;;;;;3.38;0.70;;;16.00;99.90;;;;;;5050738;28;20400;-86
2021/05/24 03:09:50;;;;;;;2.67;0.57;;;16.10;99.90;;;;;;5050888;28;20483;-84
2021/05/24 03:12:18;;;;;;;2.95;0.90;;;16.20;99.90;;;;;;5032477;28;20407;-85
2021/05/24 03:14:45;;;;;;;3.70;0.85;;;16.10;99.90;;;;;;5045217;28;20397;-85
2021/05/24 03:17:12;;;;;;;2.45;1.00;;;16.10;99.90;;;;;;5042798;28;20948;-85
2021/05/24 03:19:39;;;;;;;2.90;0.80;;;16.20;99.90;;;;;;5029801;28;20889;-85
2021/05/24 03:22:06;;;;;;;2.13;1.07;;;16.20;99.90;;;;;;5049005;28;20401;-85
2021/05/24 03:24:33;;;;;;;2.33;0.85;;;16.40;99.90;;;;;;5050540;28;20391;-85
2021/05/24 03:27:00;;;;;;;2.22;0.90;;;16.50;99.90;;;;;;5049637;28;20934;-85
2021/05/24 03:29:27;;;;;;;2.63;0.80;;;16.40;99.90;;;;;;5048883;28;20400;-87
2021/05/24 03:31:54;;;;;;;2.88;0.60;;;16.40;99.90;;;;;;5048829;28;20866;-84
2021/05/24 03:34:21;;;;;;;3.25;0.80;;;16.40;99.90;;;;;;5040221;28;20783;-83
2021/05/24 03:36:48;;;;;;;2.42;0.80;;;16.60;99.90;;;;;;5046470;28;20442;-87
2021/05/24 03:39:15;;;;;;;2.10;1.00;;;16.60;99.90;;;;;;5029277;28;20492;-83
2021/05/24 03:41:42;;;;;;;1.03;0.60;;;16.70;99.90;;;;;;5046555;28;20406;-83
2021/05/24 03:44:09;;;;;;;3.28;1.33;;;16.70;99.90;;;;;;5048057;28;20747;-84
2021/05/24 03:46:36;;;;;;;2.08;0.85;;;16.80;99.90;;;;;;5047880;28;20794;-83
2021/05/24 03:49:03;;;;;;;2.50;0.82;;;16.80;99.90;;;;;;5029974;28;20431;-82
2021/05/24 03:51:31;;;;;;;4.53;0.82;;;16.80;99.90;;;;;;5048986;28;20423;-83
2021/05/24 03:53:59;;;;;;;1.93;0.60;;;16.90;99.90;;;;;;5048107;28;20484;-83
2021/05/24 03:56:26;;;;;;;2.95;0.85;;;17.00;99.90;;;;;;5049215;28;20750;-82
2021/05/24 03:58:53;;;;;;;2.15;0.60;;;17.10;99.90;;;;;;5043663;28;20883;-83
2021/05/24 04:01:20;;;;;;;1.73;0.57;;;17.10;99.90;;;;;;5049340;28;20443;-83
2021/05/24 04:03:47;;;;;;;2.00;0.50;;;17.10;99.90;;;;;;5046199;28;20815;-83
2021/05/24 04:06:15;;;;;;;1.33;0.52;;;17.20;99.90;;;;;;5048079;28;20725;-83
2021/05/24 04:08:44;;;;;;;3.20;0.80;;;17.20;99.90;;;;;;5044791;28;20419;-82
2021/05/24 04:11:11;;;;;;;2.20;0.70;;;17.30;99.90;;;;;;5047174;28;20396;-83
2021/05/24 04:13:40;;;;;;;2.42;0.55;;;17.30;99.90;;;;;;5040192;28;20376;-83
2021/05/24 04:16:07;;;;;;;3.58;0.85;;;17.30;99.90;;;;;;5045182;28;20388;-84
2021/05/24 04:18:35;;;;;;;2.13;0.80;;;17.20;99.90;;;;;;5043772;28;20398;-84
2021/05/24 04:21:03;;;;;;;3.05;0.77;;;17.20;99.90;;;;;;5047369;28;20384;-83
2021/05/24 04:23:30;;;;;;;2.15;0.60;;;17.20;99.90;;;;;;5044571;28;20951;-83
2021/05/24 04:25:57;;;;;;;2.10;0.60;;;17.10;99.90;;;;;;5047260;28;20423;-83
2021/05/24 04:28:24;;;;;;;2.60;0.65;;;17.10;99.90;;;;;;5043145;28;20397;-83
2021/05/24 04:30:51;;;;;;;3.42;0.68;;;17.00;99.90;;;;;;5031040;28;20794;-83
2021/05/24 04:33:18;;;;;;;3.92;0.90;;;17.00;99.90;;;;;;5041373;28;20821;-83
2021/05/24 04:35:45;;;;;;;1.23;0.60;;;16.90;99.90;;;;;;5041325;28;20391;-81
2021/05/24 04:38:12;;;;;;;2.55;0.60;;;17.00;99.90;;;;;;5050261;28;20407;-84
2021/05/24 04:40:39;;;;;;;1.67;0.60;;;17.00;99.90;;;;;;5046132;28;20399;-83
2021/05/24 04:43:06;;;;;;;1.77;0.55;;;17.00;99.90;;;;;;5038099;28;20401;-82
2021/05/24 04:45:33;;;;;;;1.83;0.60;;;17.00;99.90;;;;;;5039693;28;20367;-82
2021/05/24 04:48:00;;;;;;;2.38;0.55;;;17.10;99.90;;;;;;5043276;28;20394;-84
2021/05/24 04:50:27;;;;;;;2.03;0.40;;;17.10;99.90;;;;;;5039049;28;20479;-84
2021/05/24 04:52:54;;;;;;;2.40;0.70;;;17.10;99.90;;;;;;5040426;28;20724;-84
2021/05/24 04:55:21;;;;;;;2.60;0.82;;;17.10;99.90;;;;;;5049203;28;20727;-84
2021/05/24 04:57:48;;;;;;;2.47;0.50;;;17.10;99.90;;;;;;5049147;28;20455;-84
2021/05/24 05:00:15;;;;;;;2.30;0.70;;;17.20;99.90;;;;;;5049169;28;20449;-83
2021/05/24 05:02:42;;;;;;;1.17;0.50;;;17.10;99.90;;;;;;5049047;28;20411;-84
2021/05/24 05:05:11;;;;;;;2.80;0.70;;;17.20;99.90;;;;;;5049041;28;20446;-83
2021/05/24 05:07:38;;;;;;;3.97;0.80;;;17.10;99.90;;;;;;5048719;28;20879;-84
2021/05/24 05:10:06;;;;;;;4.13;0.52;;;17.10;99.90;;;;;;5048637;28;20467;-82
2021/05/24 05:12:33;;;;;;;4.60;0.93;;;17.10;99.90;;;;;;5048587;28;20394;-82
2021/05/24 05:15:00;;;;;;;1.88;0.63;;;17.00;99.90;;;;;;5048030;28;20418;-82
2021/05/24 05:17:28;;;;;;;5.88;0.90;;;16.90;99.90;;;;;;5048070;28;20379;-81
2021/05/24 05:19:55;;;;;;;1.30;0.75;;;16.90;99.90;;;;;;5048217;28;20391;-82
2021/05/24 05:22:22;;;;;;;2.90;0.73;;;16.90;99.90;;;;;;5049473;28;20408;-83
2021/05/24 05:24:49;;;;;;;1.48;0.70;;;16.80;99.90;;;;;;5048420;28;20364;-83
2021/05/24 05:27:16;;;;;;;2.87;0.80;;;16.80;99.90;;;;;;5048599;28;20700;-83
2021/05/24 05:29:43;;;;;;;1.73;0.70;;;16.80;99.90;;;;;;5048628;28;20928;-82
2021/05/24 05:32:10;;;;;;;2.55;0.60;;;16.80;99.90;;;;;;5049041;28;20506;-83
2021/05/24 05:34:37;;;;;;;1.30;0.50;;;16.70;99.90;;;;;;5030583;28;20387;-83
2021/05/24 05:37:04;;;;;;;2.55;0.82;;;16.70;99.90;;;;;;5048415;28;20483;-83
2021/05/24 05:39:32;;;;;;;2.33;0.73;;;16.70;99.90;;;;;;5045675;28;20447;-82
2021/05/24 05:41:59;;;;;;;3.53;0.70;;;16.60;99.90;;;;;;5025266;28;20753;-83
2021/05/24 05:44:26;;;;;;;3.10;0.68;;;16.60;99.90;;;;;;5038943;28;20406;-84
2021/05/24 05:46:53;;;;;;;2.33;0.77;;;16.60;99.90;;;;;;5042778;28;20419;-83
2021/05/24 05:49:21;;;;;;;2.70;0.60;;;16.50;99.90;;;;;;5043900;28;20402;-84
2021/05/24 05:51:48;;;;;;;4.30;0.60;;;16.50;99.90;;;;;;5033955;28;20783;-83
2021/05/24 05:54:15;;;;;;;4.05;0.55;;;16.40;99.90;;;;;;5041737;28;20480;-82
2021/05/24 05:56:42;;;;;;;2.47;0.70;;;16.30;99.90;;;;;;5017280;28;20803;-82
2021/05/24 05:59:09;;;;;;;4.83;1.13;;;16.30;99.90;;;;;;5024983;28;20490;-83
2021/05/24 06:01:36;;;;;;;5.47;0.80;;;16.20;99.90;;;;;;5025933;28;20732;-83
2021/05/24 06:04:03;;;;;;;4.53;0.90;;;16.20;99.90;;;;;;5030925;28;21987;-83
2021/05/24 06:06:30;;;;;;;4.90;0.70;;;16.10;99.90;;;;;;5038971;28;20864;-83
2021/05/24 06:08:57;;;;;;;4.38;1.00;;;16.00;99.90;;;;;;5036059;28;20396;-83
2021/05/24 06:11:26;;;;;;;4.78;0.93;;;16.00;99.90;;;;;;5049019;28;20449;-82
2021/05/24 06:13:53;;;;;;;4.72;0.90;;;16.00;99.90;;;;;;5047744;28;20410;-83
2021/05/24 06:16:20;;;;;;;1.92;0.70;;;16.00;99.90;;;;;;5034682;28;20377;-83
2021/05/24 06:18:47;;;;;;;3.17;0.73;;;16.00;99.90;;;;;;5047215;28;20478;-82
2021/05/24 06:21:14;;;;;;;4.93;0.80;;;16.10;99.90;;;;;;5052093;28;20388;-82
2021/05/24 06:23:45;;;;;;;2.95;0.90;;;16.00;99.90;;;;;;5051840;28;20493;-82
2021/05/24 06:26:14;;;;;;;4.40;1.00;;;15.90;99.90;;;;;;5051547;28;20379;-83
2021/05/24 06:28:41;;;;;;;3.72;0.90;;;15.90;99.90;;;;;;5039572;28;20397;-83
2021/05/24 06:31:07;;;;;;;5.50;0.80;;;15.90;99.90;;;;;;5048691;28;20423;-82
2021/05/24 06:33:34;;;;;;;3.13;0.55;;;15.80;99.90;;;;;;5057262;28;20392;-83
2021/05/24 06:36:01;;;;;;;1.67;0.50;;;15.80;99.90;;;;;;5052733;28;20376;-84
2021/05/24 06:38:28;;;;;;;4.85;0.88;;;15.80;99.90;;;;;;5033753;28;20388;-83
2021/05/24 06:40:56;;;;;;;4.15;1.00;;;15.80;99.90;;;;;;5051588;28;20427;-85
2021/05/24 06:43:24;;;;;;;2.47;0.80;;;15.70;99.90;;;;;;5051254;28;20436;-84
2021/05/24 06:45:51;;;;;;;3.83;0.88;;;15.70;99.90;;;;;;5050297;28;20466;-84
2021/05/24 06:48:18;;;;;;;3.58;0.80;;;15.60;99.90;;;;;;5051966;28;20383;-85
2021/05/24 06:50:45;;;;;;;3.60;1.07;;;15.60;99.90;;;;;;5044719;28;20460;-83
2021/05/24 06:53:12;;;;;;;3.10;0.90;;;15.60;99.90;;;;;;5014112;28;20472;-84
2021/05/24 06:55:39;;;;;;;2.53;1.52;;;15.60;99.90;;;;;;5042208;28;20753;-84
2021/05/24 06:58:06;;;;;;;2.50;1.23;;;15.50;99.90;;;;;;5051481;28;20419;-84
2021/05/24 07:00:33;;;;;;;3.67;0.90;;;15.50;99.90;;;;;;5051958;28;20380;-85
2021/05/24 07:03:01;;;;;;;2.37;1.30;;;15.50;99.90;;;;;;5033929;28;20408;-84
2021/05/24 07:05:28;;;;;;;3.25;1.02;;;15.40;99.90;;;;;;5050237;28;20399;-84
2021/05/24 07:07:55;;;;;;;3.90;1.10;;;15.40;99.90;;;;;;5033367;28;20406;-83
2021/05/24 07:10:22;;;;;;;6.03;1.40;;;15.40;99.90;;;;;;5046967;28;20384;-87
2021/05/24 07:12:49;;;;;;;3.47;1.10;;;15.30;99.90;;;;;;5027934;28;20879;-85
2021/05/24 07:15:16;;;;;;;1.88;1.10;;;15.30;99.90;;;;;;5030752;28;20394;-86
2021/05/24 07:17:43;;;;;;;4.63;1.00;;;15.30;99.90;;;;;;5045655;28;20392;-86
2021/05/24 07:20:10;;;;;;;3.75;1.25;;;15.30;99.90;;;;;;5050834;28;20445;-84
2021/05/24 07:22:37;;;;;;;5.00;1.17;;;15.20;99.90;;;;;;5049889;28;20396;-85
2021/05/24 07:25:06;;;;;;;7.17;1.20;;;15.30;99.90;;;;;;5046612;28;20403;-83
2021/05/24 07:27:33;;;;;;;3.25;1.38;;;15.20;99.90;;;;;;5050080;28;20426;-83
2021/05/24 07:30:00;;;;;;;6.43;1.67;;;15.20;99.90;;;;;;5041688;28;20744;-83
2021/05/24 07:32:27;;;;;;;20.13;16.48;;;15.20;99.90;;;;;;5050415;28;20387;-82
2021/05/24 07:34:54;;;;;;;13.48;10.25;;;15.10;99.90;;;;;;5050612;28;20438;-83
2021/05/24 07:37:21;;;;;;;13.60;8.13;;;15.10;99.90;;;;;;5049808;28;20403;-82
2021/05/24 07:39:48;;;;;;;13.07;6.75;;;15.10;99.90;;;;;;5039805;28;20444;-84
2021/05/24 07:42:15;;;;;;;9.20;6.00;;;15.10;99.90;;;;;;5050039;28;20475;-82
2021/05/24 07:44:42;;;;;;;10.98;5.72;;;15.00;99.90;;;;;;5049353;28;20883;-83
2021/05/24 07:47:09;;;;;;;8.27;2.58;;;15.00;99.90;;;;;;5043977;28;20389;-83
2021/05/24 07:49:36;;;;;;;5.13;2.03;;;15.10;99.90;;;;;;5047551;28;20445;-83
2021/05/24 07:52:03;;;;;;;5.80;2.07;;;15.10;99.90;;;;;;5048099;28;20380;-82
2021/05/24 07:54:30;;;;;;;6.07;1.20;;;15.10;99.90;;;;;;5045793;28;20446;-81
2021/05/24 07:56:58;;;;;;;3.40;0.90;;;15.20;99.90;;;;;;5047226;28;20384;-81
2021/05/24 07:59:24;;;;;;;3.67;0.93;;;15.20;99.90;;;;;;5024856;28;20463;-80
2021/05/24 08:01:51;;;;;;;4.07;1.38;;;15.20;99.90;;;;;;5045601;28;20400;-81
2021/05/24 08:04:19;;;;;;;3.70;1.10;;;15.20;99.90;;;;;;5049105;28;20400;-81
2021/05/24 08:06:46;;;;;;;3.90;1.58;;;15.20;99.90;;;;;;5045858;28;20427;-80
2021/05/24 08:09:13;;;;;;;5.95;1.88;;;15.20;99.90;;;;;;5046676;28;20407;-81
2021/05/24 08:11:40;;;;;;;3.30;1.45;;;15.10;99.90;;;;;;5046660;28;20418;-81
2021/05/24 08:14:09;;;;;;;4.35;1.30;;;15.00;99.90;;;;;;5047422;28;20400;-81
2021/05/24 08:16:36;;;;;;;5.32;1.40;;;15.00;99.90;;;;;;5038142;28;20589;-81
2021/05/24 08:19:02;;;;;;;3.55;1.35;;;15.00;99.90;;;;;;5047386;28;20759;-80
2021/05/24 08:21:30;;;;;;;3.15;0.73;;;14.90;99.90;;;;;;5043257;28;20489;-81
2021/05/24 08:23:57;;;;;;;6.45;1.42;;;14.90;99.90;;;;;;5047461;28;20415;-80
2021/05/24 08:26:24;;;;;;;4.97;1.90;;;14.90;99.90;;;;;;5048453;28;20391;-80
2021/05/24 08:28:51;;;;;;;3.55;1.90;;;14.80;99.90;;;;;;5048190;28;20395;-80
2021/05/24 08:31:18;;;;;;;3.30;1.20;;;14.80;99.90;;;;;;5027784;28;20391;-80
2021/05/24 08:33:45;;;;;;;3.97;1.20;;;14.70;99.90;;;;;;5046395;28;21155;-81
2021/05/24 08:36:12;;;;;;;4.68;1.50;;;14.70;99.90;;;;;;5047581;28;20391;-81
2021/05/24 08:38:39;;;;;;;2.67;1.30;;;14.70;99.90;;;;;;5048013;28;20392;-82
2021/05/24 08:41:09;;;;;;;3.08;0.90;;;14.70;99.90;;;;;;5040446;28;20756;-82
2021/05/24 08:43:39;;;;;;;2.22;1.10;;;14.70;99.90;;;;;;5044851;28;20477;-82
2021/05/24 08:46:06;;;;;;;5.30;1.20;;;14.70;99.90;;;;;;5044576;28;20386;-81
2021/05/24 08:48:34;;;;;;;3.63;1.45;;;14.70;99.90;;;;;;5047808;28;20394;-81
2021/05/24 08:51:03;;;;;;;5.13;1.60;;;14.70;99.90;;;;;;5045660;28;20487;-82
2021/05/24 08:53:31;;;;;;;3.33;1.70;;;14.70;99.90;;;;;;5044915;28;20391;-82
2021/05/24 08:55:58;;;;;;;6.00;1.70;;;14.70;99.90;;;;;;5046221;28;20486;-85
2021/05/24 08:58:26;;;;;;;3.67;1.58;;;14.60;99.90;;;;;;5047518;28;20388;-83
2021/05/24 09:00:53;;;;;;;4.95;1.58;;;14.50;99.90;;;;;;5047315;28;20733;-82
2021/05/24 09:03:25;;;;;;;5.55;1.92;;;14.50;99.90;;;;;;5046188;28;20403;-83
2021/05/24 09:05:54;;;;;;;4.40;1.70;;;14.40;99.90;;;;;;5045678;28;20394;-84
2021/05/24 09:08:33;;;;;;;4.35;1.70;;;14.30;99.90;;;;;;5017198;28;20773;-83
2021/05/24 09:11:00;;;;;;;4.25;1.45;;;14.30;99.90;;;;;;5042370;28;20372;-83
2021/05/24 09:13:31;;;;;;;2.75;1.70;;;14.20;99.90;;;;;;5024539;28;20412;-82
2021/05/24 09:15:58;;;;;;;4.97;1.85;;;14.20;99.90;;;;;;5052800;28;20482;-84
2021/05/24 09:18:26;;;;;;;4.78;1.98;;;14.10;99.90;;;;;;5031947;28;20396;-84
2021/05/24 09:20:53;;;;;;;3.53;1.63;;;14.10;99.90;;;;;;5012281;28;20779;-83
2021/05/24 09:23:32;;;;;;;4.82;1.80;;;14.00;99.90;;;;;;5049062;28;20408;-82
2021/05/24 09:26:07;;;;;;;5.30;2.60;;;14.00;99.90;;;;;;5030455;28;20426;-85
2021/05/24 09:28:51;;;;;;;3.38;2.00;;;13.90;99.90;;;;;;5044914;28;20389;-83
2021/05/24 09:31:31;;;;;;;4.50;1.70;;;13.90;99.90;;;;;;5023666;28;20514;-84
2021/05/24 09:34:05;;;;;;;4.60;1.90;;;13.90;99.90;;;;;;5043354;28;20414;-82
2021/05/24 09:36:34;;;;;;;4.00;1.30;;;13.90;99.90;;;;;;5038629;28;20730;-84
2021/05/24 09:39:10;;;;;;;4.95;1.27;;;13.90;99.90;;;;;;5044122;28;20445;-84
2021/05/24 09:41:44;;;;;;;3.65;1.10;;;13.90;99.90;;;;;;5033711;28;20398;-83
2021/05/24 09:44:20;;;;;;;2.60;1.20;;;13.90;99.90;;;;;;5046589;28;20407;-84
2021/05/24 09:46:48;;;;;;;5.90;1.20;;;13.90;99.90;;;;;;5048328;28;20395;-84
2021/05/24 09:49:15;;;;;;;5.53;1.40;;;13.80;99.90;;;;;;5047619;28;20398;-83
2021/05/24 09:51:46;;;;;;;4.97;1.43;;;13.80;99.90;;;;;;5029591;28;20442;-84
2021/05/24 09:54:13;;;;;;;2.97;1.40;;;13.80;99.90;;;;;;5041343;28;20404;-84
2021/05/24 09:56:48;;;;;;;3.17;1.00;;;13.70;99.90;;;;;;5044402;28;20831;-84
2021/05/24 09:59:16;;;;;;;3.85;1.40;;;13.70;99.90;;;;;;5046065;28;20403;-83
2021/05/24 10:01:50;;;;;;;7.60;1.30;;;13.70;99.90;;;;;;5045484;28;20437;-84
2021/05/24 10:04:22;;;;;;;5.30;1.50;;;13.70;99.90;;;;;;5047970;28;20396;-83
2021/05/24 10:06:50;;;;;;;4.45;1.30;;;13.70;99.90;;;;;;5047177;28;20379;-84
2021/05/24 10:09:18;;;;;;;3.25;1.25;;;13.70;99.90;;;;;;5050828;28;20805;-84
2021/05/24 10:11:48;;;;;;;4.80;1.60;;;13.70;99.90;;;;;;5043970;28;20389;-84
2021/05/24 10:14:18;;;;;;;1.77;1.30;;;13.70;99.90;;;;;;5047631;28;20395;-84
2021/05/24 10:16:49;;;;;;;3.45;1.75;;;13.70;99.90;;;;;;5047326;28;20399;-82
2021/05/24 10:19:21;;;;;;;4.88;1.70;;;13.70;99.90;;;;;;5047915;28;20445;-84
2021/05/24 10:21:50;;;;;;;2.70;1.30;;;13.70;99.90;;;;;;5048340;28;20457;-84
2021/05/24 10:24:24;;;;;;;4.93;1.50;;;13.70;99.90;;;;;;5027910;28;20469;-83
2021/05/24 10:26:58;;;;;;;4.72;2.00;;;13.60;99.90;;;;;;5045180;28;20400;-83
2021/05/24 10:29:27;;;;;;;4.55;1.90;;;13.60;99.90;;;;;;5046724;28;20541;-83
2021/05/24 10:31:54;;;;;;;4.22;2.10;;;13.50;99.90;;;;;;5037925;28;20438;-84
2021/05/24 10:34:23;;;;;;;6.25;2.50;;;13.40;99.90;;;;;;5048399;28;20482;-84
2021/05/24 10:37:23;;;;;;;4.40;2.45;;;13.30;99.90;;;;;;5048084;28;20774;-83
2021/05/24 10:40:00;;;;;;;5.03;2.78;;;13.40;99.90;;;;;;5031536;28;20407;-84
2021/05/24 10:42:43;;;;;;;5.72;3.13;;;13.30;99.90;;;;;;5045781;28;20404;-85
2021/05/24 10:45:21;;;;;;;6.38;3.13;;;13.30;99.90;;;;;;5044801;28;20476;-84
2021/05/24 10:47:59;;;;;;;4.75;3.17;;;13.30;99.90;;;;;;5038792;28;20407;-83
2021/05/24 10:50:31;;;;;;;6.25;2.70;;;13.30;99.90;;;;;;5044946;28;20415;-84
2021/05/24 10:53:20;;;;;;;4.70;2.70;;;13.30;99.90;;;;;;5046536;28;20410;-84
2021/05/24 10:55:50;;;;;;;4.65;3.00;;;13.20;99.90;;;;;;5027734;28;20432;-84
2021/05/24 10:58:19;;;;;;;7.43;3.50;;;13.20;99.90;;;;;;5047826;28;20396;-84
2021/05/24 11:00:53;;;;;;;8.03;3.43;;;13.20;99.90;;;;;;5045256;28;20760;-84
2021/05/24 11:03:20;;;;;;;6.60;3.45;;;13.20;99.90;;;;;;5047221;28;20487;-84
2021/05/24 11:06:07;;;;;;;6.70;3.53;;;13.20;99.90;;;;;;5047904;28;20391;-83
2021/05/24 11:08:36;;;;;;;6.82;2.90;;;13.20;99.90;;;;;;5041498;28;20415;-84
2021/05/24 11:11:25;;;;;;;6.50;3.10;;;13.20;99.90;;;;;;5026247;28;20401;-85
2021/05/24 11:13:59;;;;;;;4.15;2.70;;;13.10;99.90;;;;;;5048629;28;20446;-84
2021/05/24 11:16:28;;;;;;;4.17;2.80;;;13.10;99.90;;;;;;5049317;28;20392;-84
2021/05/24 11:19:22;;;;;;;4.47;2.67;;;13.10;99.90;;;;;;5047524;28;20418;-85
2021/05/24 11:21:55;;;;;;;6.03;2.30;;;13.20;99.90;;;;;;5047150;28;20400;-85
2021/05/24 11:27:16;;;;;;;6.13;2.40;;;13.20;99.90;;;;;;5050489;28;20375;-84
2021/05/24 11:29:49;;;;;;;3.42;2.10;;;13.20;99.90;;;;;;5019640;28;20767;-83
2021/05/24 11:32:27;;;;;;;4.70;2.03;;;13.10;99.90;;;;;;5032287;28;20392;-84
2021/05/24 11:34:55;;;;;;;5.00;2.07;;;13.10;99.90;;;;;;5051086;28;20776;-85
2021/05/24 11:37:42;;;;;;;4.70;2.10;;;13.00;99.90;;;;;;5046863;28;20387;-83
2021/05/24 11:40:18;;;;;;;6.27;2.40;;;13.00;99.90;;;;;;5041361;28;20396;-83
2021/05/24 11:42:47;;;;;;;6.13;2.15;;;13.00;99.90;;;;;;5047270;28;20438;-83
2021/05/24 11:45:22;;;;;;;4.27;2.10;;;13.00;99.90;;;;;;5046352;28;20395;-83
2021/05/24 11:47:59;;;;;;;4.95;2.10;;;13.00;99.90;;;;;;5049421;28;20399;-83
2021/05/24 11:50:27;;;;;;;4.30;2.30;;;13.00;99.90;;;;;;5041363;28;20425;-84
2021/05/24 11:52:55;;;;;;;5.45;2.67;;;12.90;99.90;;;;;;5035800;28;20397;-84
2021/05/24 11:55:22;;;;;;;4.30;2.30;;;13.00;99.90;;;;;;5047717;28;20383;-84
2021/05/24 11:57:49;;;;;;;5.38;3.00;;;12.90;99.90;;;;;;5049422;28;20414;-84
2021/05/24 12:00:24;;;;;;;9.25;4.85;;;12.80;99.90;;;;;;5049990;28;20376;-84
2021/05/24 12:02:51;;;;;;;8.77;4.38;;;12.70;99.90;;;;;;5050338;28;20399;-85
2021/05/24 12:05:21;;;;;;;5.65;3.47;;;12.70;99.90;;;;;;5032311;28;20380;-85
2021/05/24 12:07:49;;;;;;;5.20;3.13;;;12.70;99.90;;;;;;5049631;28;20392;-84
2021/05/24 12:10:16;;;;;;;4.53;2.93;;;12.70;99.90;;;;;;5049404;28;20380;-84
2021/05/24 12:12:43;;;;;;;6.72;3.58;;;12.70;99.90;;;;;;5048604;28;20415;-83
2021/05/24 12:15:18;;;;;;;4.65;2.95;;;12.70;99.90;;;;;;5049777;28;20466;-85
2021/05/24 12:17:50;;;;;;;8.07;3.53;;;12.70;99.90;;;;;;5048529;28;20468;-83
2021/05/24 12:20:19;;;;;;;6.47;3.60;;;12.70;99.90;;;;;;5025585;28;20396;-84
2021/05/24 12:22:46;;;;;;;5.70;3.40;;;12.70;99.90;;;;;;5048062;28;20403;-84
2021/05/24 12:25:18;;;;;;;5.50;3.25;;;12.70;99.90;;;;;;5046188;28;20579;-84
2021/05/24 12:27:46;;;;;;;7.00;3.75;;;12.70;99.90;;;;;;5027539;28;20387;-84
2021/05/24 12:30:16;;;;;;;7.40;4.32;;;12.70;99.90;;;;;;5045597;28;20479;-85
2021/05/24 12:32:47;;;;;;;7.18;5.10;;;12.80;99.90;;;;;;5049616;28;20371;-83
2021/05/24 12:35:18;;;;;;;9.18;5.28;;;12.70;99.90;;;;;;5046554;28;20470;-83
2021/05/24 12:38:05;;;;;;;8.13;5.72;;;12.70;99.90;;;;;;5042155;28;20398;-84
2021/05/24 12:40:33;;;;;;;10.02;6.15;;;12.70;99.90;;;;;;5047592;28;20774;-83
2021/05/24 12:43:02;;;;;;;5.90;5.40;;;12.70;99.90;;;;;;5048004;28;20891;-85
2021/05/24 12:45:30;;;;;;;8.68;6.68;;;12.60;99.90;;;;;;5044816;28;20856;-84
2021/05/24 12:48:16;;;;;;;7.72;6.93;;;12.60;99.90;;;;;;5047275;28;20851;-83
2021/05/24 12:50:46;;;;;;;6.47;5.83;;;12.60;99.90;;;;;;5046559;28;20518;-84
2021/05/24 12:53:18;;;;;;;8.80;5.93;;;12.60;99.90;;;;;;5045391;28;20371;-83
2021/05/24 12:55:47;;;;;;;6.47;5.30;;;12.50;99.90;;;;;;5035291;28;20400;-83
2021/05/24 12:58:24;;;;;;;8.43;5.20;;;12.40;99.90;;;;;;5047789;28;20388;-84
2021/05/24 13:00:57;;;;;;;8.90;6.00;;;12.30;99.90;;;;;;5028953;28;20499;-82